Time;durP1;ratioP1;P1;durP2;ratioP2;P2;SDS_P1;SDS_P2;PMS_P1;PMS_P2;Temp;Humidity;BMP_temperature;BMP_pressure;BME280_temperature;BME280_humidity;BME280_pressure;Samples;Min_cycle;Max_cycle;Signal;HPM_P1;HPM_P2
2022/10/25 00:01:01;;;;;;;5.85;0.47;;;;;;;12.89;100.00;100467.59;5041595;28;20060;-76
2022/10/25 00:03:47;;;;;;;2.58;1.33;;;;;;;12.91;100.00;100472.81;5038293;28;20051;-77
2022/10/25 00:06:37;;;;;;;4.95;0.98;;;;;;;12.93;100.00;100468.38;5063374;28;20067;-80
2022/10/25 00:09:23;;;;;;;3.75;0.60;;;;;;;12.97;100.00;100475.31;5057288;28;20123;-79
2022/10/25 00:12:10;;;;;;;0.68;0.40;;;;;;;12.97;100.00;100461.28;5060538;28;20738;-77
2022/10/25 00:15:05;;;;;;;2.05;0.60;;;;;;;12.94;100.00;100454.34;5048299;28;20048;-77
2022/10/25 00:17:53;;;;;;;3.75;0.32;;;;;;;12.94;100.00;100464.84;5053076;28;20119;-79
2022/10/25 00:20:40;;;;;;;2.58;0.57;;;;;;;12.89;100.00;100459.72;5035984;28;20039;-80
2022/10/25 00:23:27;;;;;;;2.20;0.68;;;;;;;12.83;100.00;100456.38;5051001;28;20068;-79
2022/10/25 00:26:14;;;;;;;0.80;0.47;;;;;;;12.77;100.00;100467.84;5047297;28;20702;-78
2022/10/25 00:29:04;;;;;;;1.75;0.80;;;;;;;12.73;100.00;100463.56;5038003;28;20033;-77
2022/10/25 00:31:51;;;;;;;4.95;0.35;;;;;;;12.69;100.00;100462.75;5056345;28;20041;-77
2022/10/25 00:34:40;;;;;;;1.10;0.30;;;;;;;12.57;100.00;100469.13;5058130;28;20834;-77
2022/10/25 00:37:27;;;;;;;0.73;0.57;;;;;;;12.50;100.00;100475.41;5041069;28;20663;-78
2022/10/25 00:40:14;;;;;;;2.55;0.40;;;;;;;12.50;100.00;100479.78;5045429;28;20044;-77
2022/10/25 00:43:01;;;;;;;2.20;0.47;;;;;;;12.63;100.00;100477.78;5050722;28;20045;-76
2022/10/25 00:45:48;;;;;;;3.83;0.40;;;;;;;12.82;100.00;100484.38;5047708;28;20047;-77
2022/10/25 00:48:35;;;;;;;1.23;0.30;;;;;;;12.99;100.00;100486.63;5046345;28;20048;-78
2022/10/25 00:51:29;;;;;;;6.53;0.80;;;;;;;13.09;100.00;100495.19;5052791;28;20040;-82
2022/10/25 00:54:23;;;;;;;5.53;0.68;;;;;;;13.14;100.00;100503.84;5065433;28;20033;-81
2022/10/25 00:57:16;;;;;;;0.93;0.20;;;;;;;13.16;100.00;100495.94;5058404;28;20445;-76
2022/10/25 01:00:07;;;;;;;2.33;0.80;;;;;;;13.13;100.00;100496.84;5049442;28;20045;-78
2022/10/25 01:02:54;;;;;;;2.13;0.50;;;;;;;13.16;100.00;100496.78;5050989;28;20040;-78
2022/10/25 01:05:41;;;;;;;0.50;0.45;;;;;;;13.16;100.00;100494.16;5061043;28;20040;-80
2022/10/25 01:08:28;;;;;;;1.27;0.70;;;;;;;13.24;100.00;100496.59;5055582;28;20049;-78
2022/10/25 01:11:14;;;;;;;4.47;0.50;;;;;;;13.32;100.00;100502.53;5051600;28;20418;-79
2022/10/25 01:14:01;;;;;;;5.18;0.95;;;;;;;13.33;100.00;100499.03;5049168;28;20044;-80
2022/10/25 01:17:13;;;;;;;1.70;0.47;;;;;;;13.39;100.00;100498.06;5042447;28;20448;-81
2022/10/25 01:20:52;;;;;;;2.25;0.85;;;;;;;13.38;100.00;100504.22;5051562;28;20819;-78
2022/10/25 01:24:27;;;;;;;1.20;0.50;;;;;;;13.41;100.00;100498.88;5056133;28;20041;-76
2022/10/25 01:27:57;;;;;;;4.20;0.77;;;;;;;13.53;100.00;100495.97;5055541;28;20048;-78
2022/10/25 01:31:30;;;;;;;3.28;0.95;;;;;;;13.57;100.00;100500.25;5062968;28;20040;-80
2022/10/25 01:34:31;;;;;;;3.90;1.10;;;;;;;13.49;100.00;100504.84;5059315;28;20045;-77
2022/10/25 01:37:39;;;;;;;1.40;1.25;;;;;;;13.47;100.00;100501.38;5059377;28;20049;-75
2022/10/25 01:41:01;;;;;;;3.45;0.80;;;;;;;13.36;100.00;100499.00;5041557;28;20044;-78
2022/10/25 01:44:18;;;;;;;4.97;1.00;;;;;;;13.18;100.00;100508.13;5056886;28;20040;-78
2022/10/25 01:47:21;;;;;;;4.82;0.90;;;;;;;13.03;100.00;100508.47;5048551;28;20048;-78
2022/10/25 01:50:15;;;;;;;5.80;2.10;;;;;;;12.90;100.00;100507.84;5040860;28;20033;-80
2022/10/25 01:53:01;;;;;;;1.75;1.00;;;;;;;12.84;100.00;100508.84;5041569;28;20798;-78
2022/10/25 01:55:58;;;;;;;6.70;0.70;;;;;;;12.73;100.00;100511.69;5050067;28;20052;-79
2022/10/25 01:59:09;;;;;;;1.50;0.80;;;;;;;12.71;100.00;100509.97;5038568;28;20049;-77
2022/10/25 02:02:43;;;;;;;4.95;1.10;;;;;;;12.82;100.00;100513.25;5036705;28;20049;-79
2022/10/25 02:06:07;;;;;;;4.13;0.80;;;;;;;12.82;100.00;100504.53;5039359;28;20419;-80
2022/10/25 02:09:17;;;;;;;7.00;1.50;;;;;;;12.82;100.00;100510.63;5064050;28;20064;-77
2022/10/25 02:12:14;;;;;;;2.35;1.10;;;;;;;12.82;100.00;100500.13;5036309;28;20275;-80
2022/10/25 02:15:15;;;;;;;2.28;1.10;;;;;;;12.85;100.00;100501.84;5045312;28;20052;-75
2022/10/25 02:18:08;;;;;;;4.13;1.15;;;;;;;12.92;100.00;100492.94;5050968;28;20119;-79
2022/10/25 02:20:57;;;;;;;4.95;1.35;;;;;;;12.96;100.00;100499.84;5041194;28;20044;-76
2022/10/25 02:23:44;;;;;;;3.92;1.23;;;;;;;12.82;100.00;100504.53;5039577;28;20052;-77
2022/10/25 02:26:32;;;;;;;5.65;1.38;;;;;;;12.72;100.00;100504.72;5034717;28;20060;-75
2022/10/25 02:29:21;;;;;;;4.03;1.70;;;;;;;12.67;100.00;100495.19;5047501;28;20056;-75
2022/10/25 02:32:08;;;;;;;4.05;1.70;;;;;;;12.64;100.00;100500.50;5028945;28;20053;-77
2022/10/25 02:34:55;;;;;;;3.30;1.45;;;;;;;12.66;100.00;100498.72;5033332;28;20052;-77
2022/10/25 02:37:42;;;;;;;2.45;1.35;;;;;;;12.61;100.00;100493.56;5035814;28;20668;-75
2022/10/25 02:40:30;;;;;;;3.80;1.65;;;;;;;12.58;100.00;100498.88;5038247;28;20135;-77
2022/10/25 02:43:16;;;;;;;4.80;1.52;;;;;;;12.54;100.00;100503.31;5032399;28;20615;-75
2022/10/25 02:46:09;;;;;;;6.32;2.03;;;;;;;12.52;100.00;100499.84;5037526;28;20053;-76
2022/10/25 02:48:56;;;;;;;3.78;2.05;;;;;;;12.51;100.00;100507.75;5024713;28;20722;-76
2022/10/25 02:51:43;;;;;;;4.95;2.30;;;;;;;12.51;100.00;100508.63;5034656;28;20045;-80
2022/10/25 02:54:29;;;;;;;6.75;2.42;;;;;;;12.50;100.00;100513.91;5023909;28;20737;-79
2022/10/25 02:57:16;;;;;;;4.32;2.50;;;;;;;12.46;100.00;100507.00;5020701;28;20049;-80
2022/10/25 03:00:09;;;;;;;5.95;2.60;;;;;;;12.46;100.00;100507.00;5018498;28;20052;-77
2022/10/25 03:02:57;;;;;;;6.28;2.67;;;;;;;12.40;100.00;100508.84;5021363;28;20045;-78
2022/10/25 03:05:45;;;;;;;2.28;2.15;;;;;;;12.36;100.00;100519.44;5042073;28;20049;-77
2022/10/25 03:08:32;;;;;;;4.35;2.35;;;;;;;12.42;100.00;100524.53;5035736;28;20049;-82
2022/10/25 03:11:18;;;;;;;3.13;2.58;;;;;;;12.49;100.00;100523.56;5050329;28;20037;-76
2022/10/25 03:14:05;;;;;;;5.50;2.85;;;;;;;12.56;100.00;100526.91;5036687;28;20048;-79
2022/10/25 03:16:52;;;;;;;5.35;3.08;;;;;;;12.64;100.00;100524.16;5032193;28;20044;-79
2022/10/25 03:19:39;;;;;;;6.10;3.15;;;;;;;12.71;100.00;100523.13;5024652;28;20048;-79
2022/10/25 03:22:26;;;;;;;6.30;3.53;;;;;;;12.73;100.00;100527.44;5041798;28;20056;-77
2022/10/25 03:25:14;;;;;;;8.98;4.13;;;;;;;12.79;100.00;100522.97;5052179;28;20096;-79
2022/10/25 03:28:00;;;;;;;4.05;3.63;;;;;;;12.83;100.00;100528.13;5059008;28;20055;-76
2022/10/25 03:30:48;;;;;;;8.68;4.03;;;;;;;12.89;100.00;100521.88;5054162;28;20582;-78
2022/10/25 03:33:35;;;;;;;7.72;4.25;;;;;;;12.90;100.00;100534.13;5058948;28;20048;-78
2022/10/25 03:36:22;;;;;;;8.18;4.15;;;;;;;12.94;100.00;100535.78;5050307;28;20095;-80
2022/10/25 03:39:10;;;;;;;7.50;4.18;;;;;;;12.98;100.00;100537.44;5037047;28;20048;-77
2022/10/25 03:41:57;;;;;;;6.25;4.28;;;;;;;13.04;100.00;100534.72;5043084;28;20507;-79
2022/10/25 03:44:43;;;;;;;4.88;4.38;;;;;;;13.10;100.00;100532.84;5046058;28;20052;-79
2022/10/25 03:47:30;;;;;;;5.13;4.63;;;;;;;13.12;100.00;100537.19;5039825;28;20510;-77
2022/10/25 03:50:17;;;;;;;6.55;4.53;;;;;;;13.13;100.00;100536.28;5040027;28;20048;-79
2022/10/25 03:53:05;;;;;;;6.53;4.22;;;;;;;13.06;100.00;100545.19;5046272;28;20260;-82
2022/10/25 03:55:52;;;;;;;7.15;4.35;;;;;;;13.01;100.00;100550.53;5036010;28;20049;-75
2022/10/25 03:58:39;;;;;;;9.07;4.50;;;;;;;13.01;100.00;100549.66;5067218;28;20051;-77
2022/10/25 04:01:26;;;;;;;6.22;5.00;;;;;;;13.04;100.00;100544.38;5074194;28;20087;-75
2022/10/25 04:04:12;;;;;;;5.15;4.57;;;;;;;13.00;100.00;100547.97;5055634;28;20387;-77
2022/10/25 04:06:59;;;;;;;7.35;4.82;;;;;;;13.05;100.00;100548.72;5062490;28;20056;-75
2022/10/25 04:09:46;;;;;;;8.90;4.93;;;;;;;13.04;100.00;100542.59;5056488;28;20037;-76
2022/10/25 04:12:33;;;;;;;6.30;4.88;;;;;;;13.03;100.00;100545.25;5051677;28;20045;-78
2022/10/25 04:15:20;;;;;;;8.52;5.38;;;;;;;13.10;100.00;100546.00;5048481;28;20037;-77
2022/10/25 04:18:07;;;;;;;10.80;5.57;;;;;;;13.13;100.00;100549.41;5069893;28;20054;-75
2022/10/25 04:20:53;;;;;;;8.40;4.63;;;;;;;13.16;100.00;100551.13;5046271;28;20087;-78
2022/10/25 04:23:40;;;;;;;6.13;4.22;;;;;;;13.13;100.00;100552.06;5046235;28;20049;-77
2022/10/25 04:26:28;;;;;;;5.75;5.25;;;;;;;13.12;100.00;100558.19;5053778;28;20048;-77
2022/10/25 04:29:16;;;;;;;10.82;4.80;;;;;;;13.15;100.00;100552.00;5049909;28;20139;-78
2022/10/25 04:32:03;;;;;;;6.68;4.47;;;;;;;13.15;100.00;100560.75;5043159;28;20087;-76
2022/10/25 04:34:49;;;;;;;6.28;4.80;;;;;;;13.20;100.00;100564.16;5039177;28;20041;-75
2022/10/25 04:37:36;;;;;;;7.25;4.13;;;;;;;13.25;100.00;100566.69;5060084;28;20053;-79
2022/10/25 04:40:23;;;;;;;6.32;4.45;;;;;;;13.26;100.00;100563.16;5044873;28;20076;-79
2022/10/25 04:43:10;;;;;;;8.20;5.28;;;;;;;13.27;100.00;100561.41;5042194;28;20055;-78
2022/10/25 04:46:00;;;;;;;4.65;4.07;;;;;;;13.28;100.00;100571.88;5044565;28;20059;-80
2022/10/25 04:48:48;;;;;;;8.15;4.10;;;;;;;13.26;100.00;100581.56;5043532;28;20491;-81
2022/10/25 04:51:35;;;;;;;6.55;4.05;;;;;;;13.31;100.00;100568.31;5044287;28;20045;-78
2022/10/25 04:54:21;;;;;;;6.43;3.83;;;;;;;13.28;100.00;100576.28;5059879;28;20861;-78
2022/10/25 04:57:08;;;;;;;6.72;4.07;;;;;;;13.29;100.00;100573.59;5047068;28;20388;-77
2022/10/25 04:59:56;;;;;;;7.63;3.60;;;;;;;13.34;100.00;100581.41;5051445;28;20391;-79
2022/10/25 05:02:43;;;;;;;6.40;3.50;;;;;;;13.35;100.00;100578.75;5043577;28;20044;-79
2022/10/25 05:05:31;;;;;;;7.57;3.35;;;;;;;13.36;100.00;100576.97;5051730;28;20045;-76
2022/10/25 05:08:17;;;;;;;8.82;3.63;;;;;;;13.36;100.00;100579.59;5058249;28;20053;-76
2022/10/25 05:11:04;;;;;;;7.05;3.22;;;;;;;13.39;100.00;100584.84;5051865;28;20486;-76
2022/10/25 05:13:51;;;;;;;4.93;2.75;;;;;;;13.34;100.00;100584.88;5072031;28;20040;-75
2022/10/25 05:16:38;;;;;;;6.30;3.00;;;;;;;13.34;100.00;100587.53;5049073;28;20043;-75
2022/10/25 05:19:25;;;;;;;6.15;2.67;;;;;;;13.35;100.00;100601.53;5072935;28;20053;-75
2022/10/25 05:22:11;;;;;;;8.43;3.00;;;;;;;13.35;100.00;100593.63;5076524;28;20041;-77
2022/10/25 05:24:58;;;;;;;6.55;3.55;;;;;;;13.26;100.00;100591.19;5088190;28;20048;-75
2022/10/25 05:27:45;;;;;;;5.38;3.53;;;;;;;13.25;100.00;100600.88;5046950;28;20595;-77
2022/10/25 05:30:32;;;;;;;3.42;3.13;;;;;;;13.29;100.00;100604.31;5039247;28;20041;-79
2022/10/25 05:33:19;;;;;;;7.45;3.40;;;;;;;13.31;100.00;100597.22;5043383;28;20103;-76
2022/10/25 05:36:06;;;;;;;8.80;3.95;;;;;;;13.32;100.00;100599.81;5049786;28;20131;-77
2022/10/25 05:38:53;;;;;;;6.80;4.30;;;;;;;13.24;100.00;100610.53;5053807;28;20049;-77
2022/10/25 05:41:40;;;;;;;6.63;4.05;;;;;;;13.21;100.00;100607.09;5033402;28;20044;-78
2022/10/25 05:44:26;;;;;;;6.70;3.95;;;;;;;13.22;100.00;100609.69;5036433;28;20044;-78
2022/10/25 05:47:13;;;;;;;5.78;3.30;;;;;;;13.26;100.00;100615.75;5049413;28;20054;-79
2022/10/25 05:50:01;;;;;;;5.35;3.22;;;;;;;13.23;100.00;100616.69;5055990;28;20044;-77
2022/10/25 05:52:48;;;;;;;4.43;3.90;;;;;;;13.18;100.00;100620.28;5050157;28;20053;-79
2022/10/25 05:55:35;;;;;;;8.98;4.43;;;;;;;13.18;100.00;100621.16;5054697;28;20056;-78
2022/10/25 05:58:22;;;;;;;7.65;4.10;;;;;;;13.15;100.00;100621.19;5052367;28;20076;-78
2022/10/25 06:01:12;;;;;;;6.50;4.82;;;;;;;13.14;100.00;100622.13;5048692;28;20045;-77
2022/10/25 06:03:59;;;;;;;5.28;4.05;;;;;;;13.14;100.00;100630.00;5037270;28;20039;-79
2022/10/25 06:06:47;;;;;;;13.93;5.43;;;;;;;13.14;100.00;100639.63;5047849;28;20056;-78
2022/10/25 06:09:34;;;;;;;11.82;4.82;;;;;;;13.22;100.00;100645.63;5042070;28;20091;-76
2022/10/25 06:12:20;;;;;;;11.75;5.20;;;;;;;13.22;100.00;100641.22;5046864;28;20049;-77
2022/10/25 06:15:08;;;;;;;5.90;4.25;;;;;;;13.14;100.00;100655.41;5054060;28;20049;-77
2022/10/25 06:17:55;;;;;;;11.10;4.25;;;;;;;13.08;100.00;100651.16;5045711;28;20041;-80
2022/10/25 06:20:42;;;;;;;10.10;4.28;;;;;;;13.14;100.00;100652.78;5038279;28;20096;-76
2022/10/25 06:23:31;;;;;;;11.32;4.35;;;;;;;12.95;100.00;100649.66;5058741;28;20091;-78
2022/10/25 06:26:25;;;;;;;7.25;4.00;;;;;;;12.83;100.00;100646.34;5044939;28;20047;-76
2022/10/25 06:29:12;;;;;;;9.20;3.70;;;;;;;12.77;100.00;100650.84;5040345;28;20040;-77
2022/10/25 06:31:59;;;;;;;5.28;3.83;;;;;;;12.66;100.00;100658.91;5046264;28;20049;-78
2022/10/25 06:34:46;;;;;;;4.38;3.35;;;;;;;12.57;100.00;100659.94;5046613;28;20076;-76
2022/10/25 06:37:32;;;;;;;12.25;5.70;;;;;;;12.56;100.00;100669.56;5046270;28;20510;-81
2022/10/25 06:40:19;;;;;;;4.80;4.40;;;;;;;12.63;100.00;100675.59;5050990;28;20048;-77
2022/10/25 06:43:06;;;;;;;7.57;4.85;;;;;;;12.64;100.00;100681.72;5059531;28;20044;-77
2022/10/25 06:45:53;;;;;;;4.38;4.05;;;;;;;12.57;100.00;100679.19;5055583;28;20036;-79
2022/10/25 06:48:40;;;;;;;5.97;4.28;;;;;;;12.60;100.00;100678.28;5061497;28;20735;-76
2022/10/25 06:51:28;;;;;;;5.45;3.85;;;;;;;12.63;100.00;100678.22;5070828;28;20043;-76
2022/10/25 06:54:15;;;;;;;6.53;4.57;;;;;;;12.64;100.00;100681.72;5064050;28;20054;-81
2022/10/25 06:57:02;;;;;;;8.57;3.53;;;;;;;12.58;100.00;100691.44;5057689;28;20372;-76
2022/10/25 06:59:49;;;;;;;5.90;3.50;;;;;;;12.61;100.00;100693.13;5045651;28;20055;-76
2022/10/25 07:02:35;;;;;;;12.05;5.50;;;;;;;12.67;100.00;100700.94;5048792;28;20075;-77
2022/10/25 07:05:22;;;;;;;9.40;4.05;;;;;;;12.64;100.00;100710.59;5052897;28;20056;-77
2022/10/25 07:08:09;;;;;;;8.65;4.20;;;;;;;12.70;100.00;100714.00;5048440;28;20044;-76
2022/10/25 07:10:59;;;;;;;9.50;4.22;;;;;;;12.82;100.00;100710.28;5043530;28;20037;-78
2022/10/25 07:13:46;;;;;;;6.55;4.22;;;;;;;12.94;100.00;100709.19;5051266;28;20044;-79
2022/10/25 07:16:33;;;;;;;11.70;4.43;;;;;;;13.01;100.00;100720.47;5044114;28;20732;-77
2022/10/25 07:19:21;;;;;;;6.55;3.72;;;;;;;12.99;100.00;100717.03;5040455;28;20112;-80
2022/10/25 07:22:08;;;;;;;8.38;3.50;;;;;;;13.00;100.00;100721.38;5047425;28;20036;-78
2022/10/25 07:24:55;;;;;;;10.38;3.80;;;;;;;13.06;100.00;100716.00;5055883;28;20048;-78
2022/10/25 07:27:42;;;;;;;5.90;4.07;;;;;;;13.13;100.00;100729.88;5039227;28;20126;-78
2022/10/25 07:30:29;;;;;;;13.38;4.22;;;;;;;13.13;100.00;100735.16;5064044;28;20040;-79
2022/10/25 07:33:19;;;;;;;5.22;3.30;;;;;;;13.19;100.00;100733.28;5060512;28;20388;-76
2022/10/25 07:36:06;;;;;;;6.97;3.45;;;;;;;13.26;100.00;100735.78;5048031;28;20040;-80
2022/10/25 07:38:53;;;;;;;7.57;3.53;;;;;;;13.32;100.00;100738.31;5042941;28;20044;-78
2022/10/25 07:41:40;;;;;;;6.60;4.00;;;;;;;13.42;100.00;100746.94;5033207;28;20072;-78
2022/10/25 07:44:27;;;;;;;11.82;3.80;;;;;;;13.48;100.00;100749.41;5049740;28;20048;-79
2022/10/25 07:47:13;;;;;;;10.45;4.15;;;;;;;13.56;100.00;100744.91;5052200;28;20051;-79
2022/10/25 07:50:00;;;;;;;10.40;3.03;;;;;;;13.65;100.00;100754.34;5052959;28;20128;-79
2022/10/25 07:52:47;;;;;;;8.30;3.70;;;;;;;13.71;100.00;100751.59;5034476;28;20715;-77
2022/10/25 07:55:34;;;;;;;6.68;3.20;;;;;;;13.80;100.00;100761.94;5040115;28;20327;-79
2022/10/25 07:58:21;;;;;;;7.15;3.45;;;;;;;13.86;100.00;100759.19;5043381;28;20055;-78
2022/10/25 08:01:10;;;;;;;8.32;3.17;;;;;;;13.90;100.00;100765.25;5030193;28;20060;-79
2022/10/25 08:03:57;;;;;;;7.97;3.40;;;;;;;14.01;100.00;100772.91;5033325;28;20033;-76
2022/10/25 08:06:43;;;;;;;13.00;4.07;;;;;;;14.07;100.00;100767.53;5049278;28;20127;-77
2022/10/25 08:09:30;;;;;;;4.80;2.92;;;;;;;14.18;100.00;100762.00;5039671;28;20485;-80
2022/10/25 08:12:17;;;;;;;9.32;3.03;;;;;;;14.31;99.21;100763.47;5039588;28;20045;-81
2022/10/25 08:15:04;;;;;;;9.90;3.22;;;;;;;14.37;99.14;100771.22;5041207;28;20047;-78
2022/10/25 08:18:02;;;;;;;5.82;2.97;;;;;;;14.40;98.92;100780.84;5040735;28;20032;-77
2022/10/25 08:20:49;;;;;;;7.72;3.03;;;;;;;14.41;97.81;100772.03;5053529;28;20103;-79
2022/10/25 08:23:35;;;;;;;10.65;3.63;;;;;;;14.34;98.11;100783.59;5037534;28;20064;-79
2022/10/25 08:26:25;;;;;;;9.48;4.03;;;;;;;14.36;96.96;100781.81;5043738;28;20051;-80
2022/10/25 08:29:11;;;;;;;7.05;3.08;;;;;;;14.47;96.90;100785.06;5043098;28;20139;-76
2022/10/25 08:32:00;;;;;;;15.35;4.40;;;;;;;14.63;94.98;100790.84;5047950;28;20044;-78
2022/10/25 08:34:47;;;;;;;6.63;2.97;;;;;;;14.53;95.30;100787.53;5052243;28;20049;-76
2022/10/25 08:37:33;;;;;;;5.50;2.92;;;;;;;14.38;96.71;100801.09;5041424;28;20644;-79
2022/10/25 08:40:25;;;;;;;5.60;3.00;;;;;;;14.48;95.59;100792.03;5042548;28;20045;-79
2022/10/25 08:43:30;;;;;;;4.15;2.67;;;;;;;14.65;94.18;100790.84;5041575;28;20045;-80
2022/10/25 08:46:56;;;;;;;10.73;3.13;;;;;;;14.91;91.78;100798.09;5045506;28;20481;-78
2022/10/25 08:49:53;;;;;;;6.68;2.70;;;;;;;14.92;91.72;100802.47;5045918;28;20049;-79
2022/10/25 08:53:13;;;;;;;5.10;2.42;;;;;;;15.01;91.27;100811.94;5043261;28;20748;-79
2022/10/25 08:56:01;;;;;;;5.10;2.25;;;;;;;15.06;89.76;100817.97;5058247;28;20052;-77
2022/10/25 08:58:57;;;;;;;7.00;2.35;;;;;;;15.08;89.92;100820.56;5047261;28;20584;-78
2022/10/25 09:01:51;;;;;;;7.25;2.20;;;;;;;15.13;89.69;100830.06;5042911;28;20071;-78
2022/10/25 09:04:37;;;;;;;;;;;;;;;15.02;89.76;100819.81;5049559;28;20045;-76
2022/10/25 09:07:46;;;;;;;4.43;2.80;;;;;;;15.03;90.54;100829.44;5066908;28;19928;-80
2022/10/25 09:10:58;;;;;;;9.23;2.33;;;;;;;15.04;90.38;100825.91;5061295;28;20490;-76
2022/10/25 09:14:04;;;;;;;4.35;2.47;;;;;;;15.14;88.29;100823.03;5048551;28;20045;-79
2022/10/25 09:16:54;;;;;;;4.43;2.45;;;;;;;15.22;89.09;100818.44;5054137;28;20048;-78
2022/10/25 09:20:03;;;;;;;6.65;2.42;;;;;;;15.54;87.50;100819.38;5044625;28;20052;-78
2022/10/25 09:23:17;;;;;;;5.28;2.40;;;;;;;15.68;85.88;100824.25;5038401;28;20048;-76
2022/10/25 09:26:12;;;;;;;4.88;2.80;;;;;;;15.75;85.14;100828.47;5055645;28;20041;-78
2022/10/25 09:29:04;;;;;;;5.85;2.63;;;;;;;15.78;83.82;100822.25;5049981;28;20077;-79
2022/10/25 09:31:57;;;;;;;7.43;2.75;;;;;;;15.73;84.06;100824.13;5038090;28;20052;-80
2022/10/25 09:34:45;;;;;;;4.07;2.20;;;;;;;15.79;82.92;100830.09;5042200;28;20048;-78
2022/10/25 09:37:42;;;;;;;4.93;2.88;;;;;;;15.79;82.74;100840.66;5047550;28;20344;-78
2022/10/25 09:40:40;;;;;;;4.13;2.53;;;;;;;15.81;82.49;100840.66;5064920;28;20486;-79
2022/10/25 09:43:47;;;;;;;3.88;1.98;;;;;;;15.74;83.01;100836.44;5052378;28;20091;-78
2022/10/25 09:46:44;;;;;;;3.17;1.55;;;;;;;15.70;83.14;100843.56;5059321;28;20060;-80
2022/10/25 09:49:44;;;;;;;5.82;2.33;;;;;;;15.63;83.46;100848.16;5044902;28;20575;-76
2022/10/25 09:52:49;;;;;;;4.85;2.33;;;;;;;15.60;82.22;100850.84;5056182;28;20049;-77
2022/10/25 09:55:58;;;;;;;7.00;2.40;;;;;;;15.48;82.56;100857.31;5054826;28;20045;-79
2022/10/25 09:58:45;;;;;;;9.60;2.45;;;;;;;15.28;84.26;100863.13;5042126;28;20718;-80
2022/10/25 10:01:35;;;;;;;9.13;1.77;;;;;;;15.18;84.89;100865.09;5042727;28;20036;-77
2022/10/25 10:04:37;;;;;;;3.08;2.25;;;;;;;15.11;84.03;100855.63;5042478;28;20069;-78
2022/10/25 10:07:32;;;;;;;4.57;1.98;;;;;;;15.12;85.09;100864.38;5054953;28;20099;-76
2022/10/25 10:10:26;;;;;;;6.10;1.85;;;;;;;15.31;84.13;100873.56;5066640;28;20049;-77
2022/10/25 10:13:21;;;;;;;3.00;1.70;;;;;;;15.55;82.33;100869.47;5054171;28;20083;-76
2022/10/25 10:16:20;;;;;;;8.18;1.60;;;;;;;15.74;78.73;100866.31;5079848;28;20048;-77
2022/10/25 10:19:18;;;;;;;3.63;1.58;;;;;;;15.83;78.22;100866.09;5074030;28;20410;-76
2022/10/25 10:22:14;;;;;;;4.35;1.70;;;;;;;15.82;77.29;100861.72;5068406;28;20048;-76
2022/10/25 10:25:03;;;;;;;8.32;1.98;;;;;;;15.74;76.77;100862.81;5043101;28;20068;-76
2022/10/25 10:27:54;;;;;;;6.47;1.65;;;;;;;15.67;78.07;100884.09;5036667;28;20066;-77
2022/10/25 10:30:41;;;;;;;6.47;2.05;;;;;;;15.70;77.84;100881.38;5046328;28;20044;-77
2022/10/25 10:33:32;;;;;;;5.53;1.80;;;;;;;15.68;77.16;100885.84;5039001;28;20040;-78
2022/10/25 10:36:29;;;;;;;7.90;1.65;;;;;;;15.69;77.36;100889.31;5059421;28;20052;-77
2022/10/25 10:39:22;;;;;;;5.10;1.73;;;;;;;15.65;77.27;100903.50;5042702;28;20044;-78
2022/10/25 10:42:22;;;;;;;3.88;1.50;;;;;;;15.67;77.79;100896.41;5040654;28;20045;-76
2022/10/25 10:45:17;;;;;;;2.45;1.58;;;;;;;15.68;78.00;100904.31;5042807;28;20631;-76
2022/10/25 10:48:05;;;;;;;3.88;2.08;;;;;;;15.63;78.10;100902.69;5039058;28;20056;-80
2022/10/25 10:50:52;;;;;;;3.30;1.45;;;;;;;15.61;78.31;100894.81;5041066;28;20173;-81
2022/10/25 10:53:39;;;;;;;2.72;1.60;;;;;;;15.69;78.45;100889.31;5052664;28;20036;-78
2022/10/25 10:56:29;;;;;;;6.18;1.92;;;;;;;15.80;77.37;100887.28;5044224;28;20054;-77
2022/10/25 10:59:56;;;;;;;2.90;1.60;;;;;;;16.02;77.33;100899.91;5053261;28;20364;-77
2022/10/25 11:02:43;;;;;;;3.95;1.33;;;;;;;16.29;76.20;100892.13;4999995;28;20056;-78
2022/10/25 11:05:35;;;;;;;5.57;1.58;;;;;;;16.31;76.08;100899.09;4985707;28;20346;-76
2022/10/25 11:08:22;;;;;;;7.30;1.70;;;;;;;16.30;75.89;100899.16;5037139;28;20431;-78
2022/10/25 11:11:21;;;;;;;5.45;1.30;;;;;;;16.13;77.03;100905.75;5031683;28;20865;-76
2022/10/25 11:14:18;;;;;;;4.78;1.52;;;;;;;16.11;77.18;100906.72;5051982;28;20049;-77
2022/10/25 11:17:26;;;;;;;6.88;1.40;;;;;;;16.04;77.83;100898.94;5053326;28;20079;-77
2022/10/25 11:20:32;;;;;;;5.15;1.80;;;;;;;15.83;78.41;100907.47;5043423;28;20102;-77
2022/10/25 11:24:04;;;;;;;3.70;1.55;;;;;;;15.66;79.46;100911.38;5043820;28;20052;-76
2022/10/25 11:26:53;;;;;;;3.45;1.73;;;;;;;15.53;80.70;100924.03;5034098;28;20071;-77
2022/10/25 11:30:20;;;;;;;3.20;1.58;;;;;;;15.59;81.05;100915.09;5042789;28;20060;-78
2022/10/25 11:33:25;;;;;;;4.97;2.05;;;;;;;15.67;80.62;100923.69;5014842;28;20053;-80
2022/10/25 11:36:39;;;;;;;3.50;1.80;;;;;;;15.74;80.72;100919.09;5046517;28;20044;-80
2022/10/25 11:39:35;;;;;;;11.23;2.20;;;;;;;15.75;80.24;100917.31;5058367;28;20677;-77
2022/10/25 11:42:43;;;;;;;2.83;2.10;;;;;;;15.83;80.45;100916.25;5043273;28;20470;-81
2022/10/25 11:45:40;;;;;;;4.78;1.92;;;;;;;16.00;79.89;100921.06;5046970;28;20037;-77
2022/10/25 11:48:53;;;;;;;7.70;2.22;;;;;;;16.05;79.38;100915.69;5052428;28;20040;-76
2022/10/25 11:52:14;;;;;;;5.03;2.05;;;;;;;16.15;79.28;100927.72;5045361;28;20041;-78
2022/10/25 11:55:39;;;;;;;5.47;1.83;;;;;;;16.36;78.68;100928.88;5042127;28;20128;-77
2022/10/25 11:58:45;;;;;;;2.60;1.77;;;;;;;16.61;77.06;100927.28;5044404;28;20044;-79
2022/10/25 12:01:57;;;;;;;5.45;2.47;;;;;;;16.56;76.11;100913.34;5047291;28;20049;-79
2022/10/25 12:05:28;;;;;;;7.13;1.95;;;;;;;16.52;76.65;100928.44;5047423;28;20502;-77
2022/10/25 12:08:37;;;;;;;2.83;1.20;;;;;;;16.95;75.57;100918.38;5067295;28;20049;-78
2022/10/25 12:11:32;;;;;;;3.58;1.08;;;;;;;17.30;71.92;100925.19;5059126;28;20056;-79
2022/10/25 12:14:33;;;;;;;2.20;1.20;;;;;;;17.49;68.81;100916.63;5060315;28;20056;-76
2022/10/25 12:17:28;;;;;;;1.98;1.10;;;;;;;17.26;69.64;100922.69;5060959;28;20079;-75
2022/10/25 12:20:25;;;;;;;6.13;1.10;;;;;;;16.78;69.57;100919.72;5064020;28;20049;-75
2022/10/25 12:23:17;;;;;;;4.57;1.30;;;;;;;16.44;71.35;100935.72;5045315;28;20118;-76
2022/10/25 12:26:15;;;;;;;3.28;1.80;;;;;;;16.43;72.59;100939.28;5044629;28;20153;-76
2022/10/25 12:29:14;;;;;;;1.60;1.05;;;;;;;16.64;71.15;100937.78;5067638;28;20067;-77
2022/10/25 12:32:08;;;;;;;3.00;0.65;;;;;;;16.63;70.69;100939.53;5068022;28;20032;-76
2022/10/25 12:34:59;;;;;;;3.35;0.73;;;;;;;16.57;69.92;100942.41;5062596;28;20048;-76
2022/10/25 12:37:52;;;;;;;2.78;1.23;;;;;;;16.65;69.80;100937.75;5050438;28;20044;-75
2022/10/25 12:40:46;;;;;;;3.78;1.08;;;;;;;16.73;68.22;100931.38;5060123;28;20036;-78
2022/10/25 12:44:08;;;;;;;4.65;1.00;;;;;;;16.65;68.54;100937.75;5051784;28;20036;-75
2022/10/25 12:47:20;;;;;;;6.28;0.75;;;;;;;16.62;68.43;100936.97;5048185;28;20412;-77
2022/10/25 12:50:31;;;;;;;2.15;0.93;;;;;;;16.53;68.56;100935.44;5046383;28;20049;-76
2022/10/25 12:53:32;;;;;;;5.15;0.98;;;;;;;16.51;68.65;100940.78;5071323;28;20402;-82
2022/10/25 12:56:49;;;;;;;3.55;1.40;;;;;;;16.50;68.42;100928.50;5073843;28;20041;-77
2022/10/25 13:00:02;;;;;;;2.55;1.00;;;;;;;16.45;68.29;100932.16;5062266;28;20148;-77
2022/10/25 13:03:19;;;;;;;5.25;0.90;;;;;;;16.29;68.03;100937.88;5068269;28;20037;-78
2022/10/25 13:06:34;;;;;;;1.63;0.80;;;;;;;16.16;69.38;100939.16;5067281;28;20098;-75
2022/10/25 13:09:21;;;;;;;;;;;;;;;16.07;69.91;100939.41;5051996;28;20041;-76
2022/10/25 13:12:29;;;;;;;5.35;1.73;;;;;;;16.04;70.17;100921.88;5071456;28;19925;-75
2022/10/25 13:15:19;;;;;;;4.85;1.45;;;;;;;15.86;70.78;100932.00;5065364;28;20049;-78
2022/10/25 13:18:39;;;;;;;7.85;0.95;;;;;;;15.79;72.01;100940.97;5053678;28;20049;-77
2022/10/25 13:21:54;;;;;;;3.75;1.48;;;;;;;15.74;72.24;100940.22;5071880;28;20403;-76